createdAt,value
2023-02-14T00:02:08.322Z,65.67
2023-02-14T00:04:38.631Z,66.14
2023-02-14T00:07:21.993Z,66.08
2023-02-14T00:09:48.836Z,65.40
2023-02-14T00:12:21.435Z,65.83
2023-02-14T00:15:07.353Z,66.35
2023-02-14T00:17:37.220Z,66.38
2023-02-14T00:20:09.831Z,66.45
2023-02-14T00:22:42.079Z,66.18
2023-02-14T00:25:09.090Z,65.12
2023-02-14T00:27:44.849Z,65.35
2023-02-14T00:30:21.072Z,65.30
2023-02-14T00:32:54.370Z,65.13
2023-02-14T00:35:28.910Z,65.15
2023-02-14T00:37:55.698Z,65.14
2023-02-14T00:40:22.692Z,65.48
2023-02-14T00:42:49.463Z,65.52
2023-02-14T00:45:25.610Z,65.62
2023-02-14T00:47:59.314Z,65.20
2023-02-14T00:50:31.394Z,65.16
2023-02-14T00:52:58.211Z,65.06
2023-02-14T00:55:29.437Z,65.14
2023-02-14T00:57:57.108Z,65.63
2023-02-14T01:00:28.680Z,65.24
2023-02-14T01:03:02.872Z,65.75
2023-02-14T01:05:30.554Z,65.96
2023-02-14T01:08:17.153Z,66.25
2023-02-14T01:10:54.497Z,66.37
2023-02-14T01:16:20.938Z,65.33
2023-02-14T01:18:51.413Z,65.47
2023-02-14T01:21:21.871Z,65.80
2023-02-14T01:23:51.410Z,66.40
2023-02-14T01:26:33.732Z,66.76
2023-02-14T01:29:18.401Z,67.29
2023-02-14T01:31:45.321Z,67.65
2023-02-14T01:34:12.054Z,67.24
2023-02-14T01:36:39.716Z,67.07
2023-02-14T01:39:16.865Z,67.72
2023-02-14T01:41:44.967Z,67.52
2023-02-14T01:44:20.880Z,67.49
2023-02-14T01:47:06.326Z,67.17
2023-02-14T01:53:05.691Z,67.00
2023-02-14T01:55:42.437Z,66.40
2023-02-14T02:00:57.933Z,66.43
2023-02-14T02:03:32.997Z,66.95
2023-02-14T02:06:15.407Z,66.76
2023-02-14T02:09:12.569Z,65.46
2023-02-14T02:11:43.300Z,65.03
2023-02-14T02:14:21.323Z,65.93
2023-02-14T02:17:03.572Z,66.46
2023-02-14T02:19:48.474Z,66.03
2023-02-14T02:22:51.681Z,66.17
2023-02-14T02:25:42.697Z,66.29
2023-02-14T02:28:47.213Z,66.68
2023-02-14T02:31:37.868Z,66.49
2023-02-14T02:34:22.789Z,66.48
2023-02-14T02:37:23.826Z,67.09
2023-02-14T02:40:12.094Z,67.25
2023-02-14T02:42:51.110Z,67.26
2023-02-14T02:46:18.648Z,67.72
2023-02-14T02:49:04.897Z,68.08
2023-02-14T02:52:13.509Z,67.86
2023-02-14T02:54:54.996Z,67.52
2023-02-14T02:57:44.132Z,66.51
2023-02-14T03:00:14.262Z,67.31
2023-02-14T03:03:13.714Z,67.37
2023-02-14T03:05:45.250Z,67.44
2023-02-14T03:08:20.937Z,67.55
2023-02-14T03:10:47.800Z,67.11
2023-02-14T03:13:37.532Z,67.63
2023-02-14T03:16:40.060Z,66.99
2023-02-14T03:19:49.801Z,66.76
2023-02-14T03:22:39.850Z,66.45
2023-02-14T03:25:16.777Z,67.04
2023-02-14T03:28:18.787Z,67.92
2023-02-14T03:33:35.782Z,67.82
2023-02-14T03:36:18.009Z,67.62
2023-02-14T03:39:25.869Z,66.78
2023-02-14T03:42:13.820Z,65.64
2023-02-14T03:44:47.693Z,65.75
2023-02-14T03:47:28.457Z,66.66
2023-02-14T03:50:04.473Z,66.99
2023-02-14T03:52:40.603Z,67.10
2023-02-14T03:55:17.743Z,67.63
2023-02-14T03:58:23.556Z,67.56
2023-02-14T04:00:58.204Z,67.91
2023-02-14T04:03:34.879Z,67.54
2023-02-14T04:06:07.954Z,67.54
2023-02-14T04:08:35.901Z,67.40
2023-02-14T04:11:06.710Z,66.69
2023-02-14T04:13:39.652Z,66.31
2023-02-14T04:16:07.528Z,66.38
2023-02-14T04:18:55.599Z,66.99
2023-02-14T04:21:28.062Z,67.58
2023-02-14T04:23:57.163Z,67.73
2023-02-14T04:26:23.867Z,67.68
2023-02-14T04:28:52.838Z,67.63
2023-02-14T04:31:22.450Z,67.47
2023-02-14T04:33:57.182Z,67.11
2023-02-14T04:36:23.985Z,67.66
2023-02-14T04:38:50.787Z,67.58
2023-02-14T04:41:18.345Z,67.69
2023-02-14T04:43:54.160Z,67.47
2023-02-14T04:46:21.528Z,67.93
2023-02-14T04:48:58.576Z,67.74
2023-02-14T04:51:43.151Z,67.29
2023-02-14T04:54:14.221Z,66.81
2023-02-14T04:56:50.631Z,67.30
2023-02-14T04:59:20.723Z,67.45
2023-02-14T05:01:50.091Z,67.22
2023-02-14T05:04:17.008Z,67.39
2023-02-14T05:06:43.989Z,67.43
2023-02-14T05:09:10.887Z,67.25
2023-02-14T05:11:40.151Z,67.07
2023-02-14T05:14:23.094Z,66.94
2023-02-14T05:16:49.882Z,67.46
2023-02-14T05:19:19.493Z,67.54
2023-02-14T05:21:51.052Z,68.21
2023-02-14T05:24:35.185Z,68.08
2023-02-14T05:27:01.981Z,68.28
2023-02-14T05:29:28.821Z,68.03
2023-02-14T05:31:57.430Z,67.50
2023-02-14T05:34:33.248Z,66.98
2023-02-14T05:37:04.022Z,67.29
2023-02-14T05:39:37.334Z,67.34
2023-02-14T05:42:04.371Z,67.04
2023-02-14T05:44:31.520Z,67.12
2023-02-14T05:46:58.780Z,66.98
2023-02-14T05:49:26.689Z,67.48
2023-02-14T05:51:56.705Z,67.29
2023-02-14T05:54:23.460Z,67.52
2023-02-14T05:56:50.255Z,66.89
2023-02-14T05:59:29.672Z,66.62
2023-02-14T06:02:00.373Z,66.74
2023-02-14T06:04:33.583Z,66.70
2023-02-14T06:07:05.152Z,67.13
2023-02-14T06:09:37.628Z,66.89
2023-02-14T06:12:08.620Z,66.72
2023-02-14T06:14:36.954Z,67.37
2023-02-14T06:17:09.142Z,67.10
2023-02-14T06:19:37.169Z,67.69
2023-02-14T06:22:04.647Z,67.21
2023-02-14T06:24:31.509Z,66.83
2023-02-14T06:27:01.526Z,67.14
2023-02-14T06:29:38.124Z,66.07
2023-02-14T06:34:41.098Z,66.62
2023-02-14T06:37:19.386Z,66.62
2023-02-14T06:39:46.583Z,67.46
2023-02-14T06:42:19.801Z,67.82
2023-02-14T06:44:58.766Z,67.66
2023-02-14T06:47:30.019Z,67.21
2023-02-14T06:50:02.501Z,67.58
2023-02-14T06:52:50.530Z,67.32
2023-02-14T06:55:21.042Z,66.78
2023-02-14T06:57:48.065Z,66.92
2023-02-14T07:00:18.656Z,66.72
2023-02-14T07:02:45.970Z,66.98
2023-02-14T07:05:15.791Z,67.00
2023-02-14T07:07:45.717Z,66.74
2023-02-14T07:10:16.607Z,66.44
2023-02-14T07:12:47.915Z,66.07
2023-02-14T07:15:16.718Z,65.79
2023-02-14T07:17:52.758Z,64.73
2023-02-14T07:20:22.557Z,64.61
2023-02-14T07:22:54.511Z,64.01
2023-02-14T07:25:27.790Z,64.49
2023-02-14T07:30:40.419Z,64.00
2023-02-14T07:33:07.376Z,62.22
2023-02-14T07:35:35.459Z,61.57
2023-02-14T07:38:09.703Z,61.02
2023-02-14T07:40:36.384Z,60.35
2023-02-14T07:43:03.866Z,60.30
2023-02-14T07:45:30.683Z,60.08
2023-02-14T07:48:02.383Z,60.11
2023-02-14T07:50:29.677Z,59.09
2023-02-14T07:53:00.296Z,58.53
2023-02-14T07:55:33.955Z,57.95
2023-02-14T07:58:07.118Z,56.94
2023-02-14T08:00:52.414Z,56.93
2023-02-14T08:03:25.676Z,55.14
2023-02-14T08:06:10.699Z,54.75
2023-02-14T08:08:44.998Z,54.97
2023-02-14T08:11:12.340Z,54.33
2023-02-14T08:13:39.112Z,54.44
2023-02-14T08:16:09.872Z,55.28
2023-02-14T08:21:18.373Z,54.78
2023-02-14T08:23:47.495Z,54.32
2023-02-14T08:26:14.787Z,53.33
2023-02-14T08:28:41.947Z,52.82
2023-02-14T08:31:15.910Z,53.01
2023-02-14T08:33:45.154Z,53.20
2023-02-14T08:36:15.144Z,52.85
2023-02-14T08:38:48.321Z,52.17
2023-02-14T08:41:21.485Z,52.96
2023-02-14T08:43:49.891Z,52.58
2023-02-14T08:46:21.605Z,52.51
2023-02-14T08:48:52.973Z,52.25
2023-02-14T08:51:22.847Z,51.89
2023-02-14T08:53:53.389Z,52.51
2023-02-14T08:56:41.420Z,52.65
2023-02-14T08:59:10.637Z,51.97
2023-02-14T09:01:40.607Z,52.55
2023-02-14T09:04:13.454Z,52.61
2023-02-14T09:06:55.450Z,52.07
2023-02-14T09:09:22.140Z,50.99
2023-02-14T09:11:51.726Z,51.08
2023-02-14T09:14:50.517Z,50.94
2023-02-14T09:17:17.633Z,50.88
2023-02-14T09:19:47.726Z,50.91
2023-02-14T09:22:17.027Z,50.59
2023-02-14T09:24:46.223Z,51.16
2023-02-14T09:27:20.237Z,51.32
2023-02-14T09:29:47.077Z,50.73
2023-02-14T09:35:11.141Z,49.91
2023-02-14T09:37:56.388Z,49.92
2023-02-14T09:40:25.925Z,50.02
2023-02-14T09:43:07.282Z,50.52
2023-02-14T09:45:34.927Z,50.69
2023-02-14T09:48:11.026Z,50.39
2023-02-14T09:51:20.438Z,49.51
2023-02-14T09:53:56.103Z,50.02
2023-02-14T09:57:00.422Z,49.82
2023-02-14T09:59:51.850Z,49.76
2023-02-14T10:02:40.121Z,49.67
2023-02-14T10:06:12.707Z,49.58
2023-02-14T10:09:12.976Z,49.10
2023-02-14T10:11:44.256Z,49.01
2023-02-14T10:14:30.129Z,48.43
2023-02-14T10:17:45.810Z,48.09
2023-02-14T10:20:39.039Z,47.02
2023-02-14T10:24:01.165Z,46.68
2023-02-14T10:26:51.311Z,46.31
2023-02-14T10:29:28.941Z,46.43
2023-02-14T10:32:09.261Z,46.06
2023-02-14T10:34:46.412Z,45.67
2023-02-14T10:41:04.442Z,44.69
2023-02-14T10:44:15.323Z,44.69
2023-02-14T10:47:02.005Z,43.91
2023-02-14T10:50:09.739Z,43.92
2023-02-14T10:53:06.453Z,42.74
2023-02-14T10:56:23.281Z,42.14
2023-02-14T11:01:39.436Z,42.46
2023-02-14T11:04:15.358Z,42.35
2023-02-14T11:06:57.616Z,43.38
2023-02-14T11:09:24.891Z,42.53
2023-02-14T11:12:00.148Z,43.24
2023-02-14T11:15:03.474Z,43.41
2023-02-14T11:17:41.815Z,43.48
2023-02-14T11:20:26.681Z,43.80
2023-02-14T11:22:57.146Z,43.48
2023-02-14T11:25:36.786Z,43.49
2023-02-14T11:28:17.612Z,43.57
2023-02-14T11:30:47.853Z,43.81
2023-02-14T11:33:43.056Z,43.09
2023-02-14T11:36:17.713Z,43.00
2023-02-14T11:38:46.191Z,42.86
2023-02-14T11:41:16.403Z,43.38
2023-02-14T11:43:53.286Z,43.59
2023-02-14T11:46:28.712Z,44.28
2023-02-14T11:49:27.652Z,44.64
2023-02-14T11:52:04.260Z,44.24
2023-02-14T11:54:43.149Z,43.42
2023-02-14T11:57:22.789Z,43.15
2023-02-14T11:59:54.934Z,43.38
2023-02-14T12:02:28.252Z,43.26
2023-02-14T12:05:04.437Z,42.60
2023-02-14T12:07:37.981Z,42.67
2023-02-14T12:10:22.760Z,42.36
2023-02-14T12:13:00.248Z,41.91
2023-02-14T12:15:54.618Z,42.53
2023-02-14T12:18:34.051Z,42.98
2023-02-14T12:21:16.450Z,41.68
2023-02-14T12:23:51.540Z,41.94
2023-02-14T12:26:43.362Z,42.15
2023-02-14T12:29:21.541Z,41.28
2023-02-14T12:31:56.947Z,41.46
2023-02-14T12:34:28.607Z,40.79
2023-02-14T12:36:58.366Z,40.66
2023-02-14T12:40:00.862Z,41.07
2023-02-14T12:42:53.074Z,41.60
2023-02-14T12:45:54.316Z,41.50
2023-02-14T12:52:34.092Z,40.50
2023-02-14T12:55:39.892Z,40.67
2023-02-14T12:58:49.257Z,40.58
2023-02-14T13:01:58.170Z,40.42
2023-02-14T13:08:27.022Z,40.57
2023-02-14T13:11:19.464Z,40.25
2023-02-14T13:13:55.700Z,40.72
2023-02-14T13:17:15.688Z,40.39
2023-02-14T13:20:19.103Z,39.88
2023-02-14T13:23:07.387Z,39.67
2023-02-14T13:25:50.119Z,39.21
2023-02-14T13:28:20.877Z,39.50
2023-02-14T13:30:58.259Z,39.84
2023-02-14T13:34:05.950Z,39.54
2023-02-14T13:36:36.923Z,39.46
2023-02-14T13:39:04.917Z,39.20
2023-02-14T13:41:32.754Z,38.92
2023-02-14T13:44:06.910Z,39.62
2023-02-14T13:47:10.420Z,40.31
2023-02-14T13:49:50.347Z,41.26
2023-02-14T13:52:47.499Z,40.31
2023-02-14T13:55:48.836Z,40.51
2023-02-14T13:58:31.960Z,40.32
2023-02-14T14:01:47.030Z,39.26
2023-02-14T14:04:37.417Z,38.83
2023-02-14T14:07:15.712Z,38.76
2023-02-14T14:09:51.716Z,39.77
2023-02-14T14:12:30.902Z,39.83
2023-02-14T14:15:07.616Z,39.39
2023-02-14T14:17:41.832Z,40.30
2023-02-14T14:20:27.790Z,40.45
2023-02-14T14:22:56.862Z,40.98
2023-02-14T14:25:38.560Z,41.19
2023-02-14T14:28:19.804Z,41.36
2023-02-14T14:30:52.191Z,41.39
2023-02-14T14:33:49.163Z,40.81
2023-02-14T14:36:27.520Z,40.05
2023-02-14T14:39:10.337Z,40.34
2023-02-14T14:41:45.453Z,40.72
2023-02-14T14:44:16.654Z,40.73
2023-02-14T14:47:03.658Z,40.92
2023-02-14T14:49:33.630Z,41.47
2023-02-14T14:52:01.992Z,41.29
2023-02-14T14:54:38.053Z,41.83
2023-02-14T14:57:07.816Z,42.15
2023-02-14T14:59:40.913Z,41.21
2023-02-14T15:02:45.136Z,41.32
2023-02-14T15:05:55.848Z,41.67
2023-02-14T15:08:33.085Z,41.58
2023-02-14T15:11:06.260Z,40.42
2023-02-14T15:14:23.510Z,40.50
2023-02-14T15:17:13.694Z,40.45
2023-02-14T15:19:59.606Z,40.54
2023-02-14T15:22:44.985Z,40.74
2023-02-14T15:25:21.002Z,40.33
2023-02-14T15:27:49.706Z,39.74
2023-02-14T15:30:19.603Z,40.38
2023-02-14T15:32:59.366Z,40.49
2023-02-14T15:35:33.994Z,40.24
2023-02-14T15:38:07.062Z,40.78
2023-02-14T15:40:42.677Z,41.46
2023-02-14T15:43:25.371Z,42.33
2023-02-14T15:46:00.463Z,42.24
2023-02-14T15:48:32.680Z,42.75
2023-02-14T15:51:11.691Z,43.19
2023-02-14T15:53:45.802Z,43.62
2023-02-14T15:56:30.018Z,43.81
2023-02-14T15:59:20.411Z,43.58
2023-02-14T16:02:18.273Z,43.70
2023-02-14T16:04:53.835Z,44.57
2023-02-14T16:07:33.256Z,44.65
2023-02-14T16:10:44.568Z,44.48
2023-02-14T16:13:17.204Z,45.23
2023-02-14T16:16:07.207Z,45.85
2023-02-14T16:18:56.997Z,45.91
2023-02-14T16:21:30.525Z,45.51
2023-02-14T16:24:12.680Z,45.79
2023-02-14T16:26:52.437Z,46.40
2023-02-14T16:29:25.728Z,46.51
2023-02-14T16:32:15.212Z,46.30
2023-02-14T16:34:45.899Z,46.48
2023-02-14T16:37:44.561Z,46.53
2023-02-14T16:40:35.440Z,46.84
2023-02-14T16:43:14.864Z,47.07
2023-02-14T16:45:49.444Z,47.39
2023-02-14T16:48:16.292Z,47.78
2023-02-14T16:50:44.369Z,47.76
2023-02-14T16:53:37.317Z,47.63
2023-02-14T16:56:13.205Z,48.43
2023-02-14T16:58:53.161Z,49.55
2023-02-14T17:01:23.218Z,49.50
2023-02-14T17:03:53.465Z,49.81
2023-02-14T17:06:34.447Z,49.69
2023-02-14T17:09:23.310Z,49.92
2023-02-14T17:11:56.231Z,50.82
2023-02-14T17:14:45.698Z,50.25
2023-02-14T17:17:21.265Z,49.96
2023-02-14T17:19:54.325Z,50.39
2023-02-14T17:22:25.502Z,50.46
2023-02-14T17:24:57.167Z,50.28
2023-02-14T17:27:28.587Z,51.08
2023-02-14T17:30:00.931Z,50.92
2023-02-14T17:32:27.935Z,50.28
2023-02-14T17:35:08.649Z,51.20
2023-02-14T17:37:39.861Z,51.21
2023-02-14T17:40:09.452Z,51.81
2023-02-14T17:42:36.748Z,51.18
2023-02-14T17:45:06.250Z,50.81
2023-02-14T17:47:35.227Z,51.06
2023-02-14T17:50:08.541Z,51.75
2023-02-14T17:52:36.460Z,50.84
2023-02-14T17:55:06.729Z,51.72
2023-02-14T17:57:38.140Z,52.00
2023-02-14T18:00:22.137Z,52.00
2023-02-14T18:02:57.725Z,52.02
2023-02-14T18:05:26.357Z,52.13
2023-02-14T18:08:01.580Z,52.54
2023-02-14T18:16:27.792Z,53.10
2023-02-14T18:19:02.175Z,53.54
2023-02-14T18:21:47.940Z,54.09
2023-02-14T18:24:37.221Z,53.89
2023-02-14T18:27:07.575Z,54.42
2023-02-14T18:29:36.982Z,54.70
2023-02-14T18:32:05.166Z,54.80
2023-02-14T18:34:40.619Z,54.35
2023-02-14T18:37:40.862Z,53.77
2023-02-14T18:40:20.410Z,54.95
2023-02-14T18:42:53.390Z,55.37
2023-02-14T18:45:31.643Z,55.47
2023-02-14T18:48:06.331Z,56.02
2023-02-14T18:50:35.479Z,56.68
2023-02-14T18:53:06.190Z,57.06
2023-02-14T18:55:33.882Z,56.97
2023-02-14T18:58:07.841Z,57.04
2023-02-14T19:00:38.001Z,56.99
2023-02-14T19:03:09.709Z,57.01
2023-02-14T19:05:43.369Z,56.80
2023-02-14T19:08:16.200Z,56.93
2023-02-14T19:10:48.756Z,57.29
2023-02-14T19:13:20.924Z,57.60
2023-02-14T19:15:48.586Z,58.01
2023-02-14T19:18:25.572Z,58.06
2023-02-14T19:21:00.050Z,58.27
2023-02-14T19:23:31.623Z,58.25
2023-02-14T19:26:00.783Z,58.67
2023-02-14T19:29:11.145Z,59.08
2023-02-14T19:32:14.066Z,58.43
2023-02-14T19:35:18.074Z,59.52
2023-02-14T19:38:08.636Z,59.50
2023-02-14T19:40:57.653Z,60.05
2023-02-14T19:43:27.929Z,59.66
2023-02-14T19:45:56.341Z,59.53
2023-02-14T19:48:40.036Z,59.67
2023-02-14T19:51:19.275Z,59.70
2023-02-14T19:53:55.241Z,58.96
2023-02-14T19:56:40.339Z,59.74
2023-02-14T19:59:46.685Z,60.40
2023-02-14T20:02:45.389Z,60.37
2023-02-14T20:05:21.103Z,60.38
2023-02-14T20:07:54.660Z,60.63
2023-02-14T20:10:39.108Z,60.74
2023-02-14T20:13:17.546Z,60.45
2023-02-14T20:15:59.653Z,60.56
2023-02-14T20:18:29.972Z,60.95
2023-02-14T20:21:03.119Z,61.07
2023-02-14T20:23:36.964Z,61.09
2023-02-14T20:26:13.769Z,61.59
2023-02-14T20:28:43.546Z,62.02
2023-02-14T20:31:21.266Z,62.13
2023-02-14T20:34:04.885Z,60.97
2023-02-14T20:36:41.577Z,60.83
2023-02-14T20:39:27.473Z,59.50
2023-02-14T20:44:51.065Z,57.86
2023-02-14T20:47:30.658Z,58.45
2023-02-14T20:50:01.931Z,59.57
2023-02-14T20:52:43.054Z,60.21
2023-02-14T20:55:12.479Z,60.05
2023-02-14T20:58:24.312Z,60.62
2023-02-14T21:01:08.416Z,61.16
2023-02-14T21:03:58.482Z,61.19
2023-02-14T21:06:51.813Z,61.93
2023-02-14T21:09:33.160Z,62.09
2023-02-14T21:12:14.839Z,62.40
2023-02-14T21:14:55.604Z,62.87
2023-02-14T21:17:30.895Z,63.13
2023-02-14T21:20:01.400Z,63.65
2023-02-14T21:22:30.922Z,63.49
2023-02-14T21:24:58.713Z,62.92
2023-02-14T21:27:25.994Z,63.02
2023-02-14T21:29:59.269Z,62.60
2023-02-14T21:32:32.248Z,63.08
2023-02-14T21:35:08.955Z,62.90
2023-02-14T21:37:50.418Z,63.41
2023-02-14T21:40:23.743Z,63.45
2023-02-14T21:43:05.100Z,63.18
2023-02-14T21:45:58.736Z,63.57
2023-02-14T21:48:56.533Z,63.11
2023-02-14T21:51:36.161Z,63.48
2023-02-14T21:54:04.064Z,63.39
2023-02-14T21:56:39.578Z,63.73
2023-02-14T21:59:06.514Z,63.67
2023-02-14T22:01:52.660Z,63.81
2023-02-14T22:04:25.340Z,63.06
2023-02-14T22:06:57.432Z,63.43
2023-02-14T22:09:24.299Z,63.17
2023-02-14T22:11:58.974Z,63.59
2023-02-14T22:14:31.412Z,64.13
2023-02-14T22:17:00.972Z,64.73
2023-02-14T22:19:37.544Z,64.00
2023-02-14T22:22:08.441Z,64.06
2023-02-14T22:24:48.723Z,64.23
2023-02-14T22:27:46.609Z,64.55
2023-02-14T22:30:14.123Z,65.36
2023-02-14T22:32:58.575Z,65.21
2023-02-14T22:35:28.413Z,65.29
2023-02-14T22:38:01.366Z,65.28
2023-02-14T22:40:38.893Z,65.54
2023-02-14T22:43:12.000Z,66.01
2023-02-14T22:46:04.727Z,66.07
2023-02-14T22:48:43.917Z,66.15
2023-02-14T22:51:27.233Z,66.27
2023-02-14T22:54:17.062Z,66.00
2023-02-14T22:59:36.427Z,66.40
2023-02-14T23:02:18.009Z,65.68
2023-02-14T23:04:57.412Z,65.30
2023-02-14T23:07:29.299Z,65.22
2023-02-14T23:10:03.948Z,65.61
2023-02-14T23:15:52.936Z,65.82
2023-02-14T23:18:39.545Z,65.92
2023-02-14T23:21:50.765Z,66.32
2023-02-14T23:24:18.092Z,65.95
2023-02-14T23:26:48.113Z,66.29
2023-02-14T23:29:22.096Z,65.73
2023-02-14T23:31:49.573Z,66.36
2023-02-14T23:34:20.073Z,65.95
2023-02-14T23:36:51.030Z,66.37
2023-02-14T23:39:20.778Z,66.52
2023-02-14T23:41:58.378Z,67.03
2023-02-14T23:44:37.030Z,67.45
2023-02-14T23:47:08.373Z,67.50
2023-02-14T23:49:37.556Z,67.61
2023-02-14T23:52:12.639Z,67.30
2023-02-14T23:54:42.579Z,67.26
2023-02-14T23:57:09.747Z,66.96
2023-02-14T23:59:50.308Z,66.88
